createdAt,value
2022-12-02T11:36:14.981Z,95811.59
2022-12-02T11:38:47.453Z,95821.84
2022-12-02T11:41:16.437Z,95782.03
2022-12-02T11:43:56.433Z,95817.31
2022-12-02T11:46:39.585Z,95779.91
2022-12-02T11:49:22.876Z,95759.53
2022-12-02T11:51:52.334Z,95819.16
2022-12-02T11:54:20.489Z,95792.81
2022-12-02T11:56:48.554Z,95815.28
2022-12-02T11:59:26.046Z,95813.16
2022-12-02T12:02:08.359Z,95802.22
2022-12-02T12:04:36.300Z,95778.06
2022-12-02T12:07:05.494Z,95802.13
2022-12-02T12:09:33.572Z,95810.03
2022-12-02T12:12:18.690Z,95798.84
2022-12-02T12:14:57.951Z,95815.81
2022-12-02T12:17:46.765Z,95763.66
2022-12-02T12:20:46.235Z,95808.28
2022-12-02T12:23:40.223Z,95796.00
2022-12-02T12:26:09.260Z,95802.34
2022-12-02T12:28:39.097Z,95816.91
2022-12-02T12:31:08.399Z,95814.75
2022-12-02T12:33:36.398Z,95817.41
2022-12-02T12:36:04.303Z,95821.38
2022-12-02T12:38:32.225Z,95817.91
2022-12-02T12:41:01.481Z,95813.03
2022-12-02T12:43:29.372Z,95795.88
2022-12-02T12:45:57.379Z,95813.16
2022-12-02T12:48:25.305Z,95797.19
2022-12-02T12:50:53.268Z,95814.06
2022-12-02T12:53:21.131Z,95816.97
2022-12-02T12:55:49.528Z,95821.72
2022-12-02T12:58:19.194Z,95818.59
2022-12-02T13:00:46.984Z,95776.69
2022-12-02T13:03:14.920Z,95822.97
2022-12-02T13:05:42.828Z,95825.19
2022-12-02T13:08:10.821Z,95827.97
2022-12-02T13:10:38.737Z,95829.63
2022-12-02T13:13:06.779Z,95775.94
2022-12-02T13:15:36.630Z,95785.16
2022-12-02T13:18:04.730Z,95818.78
2022-12-02T13:20:32.724Z,95781.38
2022-12-02T13:23:00.690Z,95813.69
2022-12-02T13:25:28.535Z,95824.91
2022-12-02T13:27:56.389Z,95832.00
2022-12-02T13:30:24.730Z,95814.00
2022-12-02T13:32:54.706Z,95824.69
2022-12-02T13:35:23.084Z,95829.28
2022-12-02T13:37:51.116Z,95825.34
2022-12-02T13:40:19.980Z,95824.56
2022-12-02T13:42:47.893Z,95829.22
2022-12-02T13:45:15.820Z,95838.06
2022-12-02T13:47:43.678Z,95829.28
2022-12-02T13:50:13.340Z,95832.78
2022-12-02T13:52:41.212Z,95794.00
2022-12-02T13:55:10.041Z,95835.81
2022-12-02T13:57:37.882Z,95830.47
2022-12-02T14:00:07.101Z,95832.53
2022-12-02T14:02:35.028Z,95862.41
2022-12-02T14:05:07.729Z,95852.97
2022-12-02T14:07:37.664Z,95845.81
2022-12-02T14:10:06.916Z,95856.59
2022-12-02T14:12:34.862Z,95839.03
2022-12-02T14:15:02.863Z,95848.88
2022-12-02T14:17:30.722Z,95854.78
2022-12-02T14:19:58.596Z,95828.47
2022-12-02T14:22:26.515Z,95836.91
2022-12-02T14:24:56.555Z,95872.09
2022-12-02T14:27:24.438Z,95859.94
2022-12-02T14:29:52.334Z,95875.75
2022-12-02T14:32:20.182Z,95878.19
2022-12-02T14:34:48.059Z,95879.13
2022-12-02T14:37:16.069Z,95873.25
2022-12-02T14:39:43.964Z,95859.50
2022-12-02T14:42:13.299Z,95878.69
2022-12-02T14:44:41.172Z,95864.88
2022-12-02T14:47:09.044Z,95880.63
2022-12-02T14:49:47.653Z,95881.94
2022-12-02T14:52:15.626Z,95879.25
2022-12-02T14:54:43.523Z,95882.66
2022-12-02T14:57:14.280Z,95830.50
2022-12-02T14:59:43.766Z,95881.06
2022-12-02T15:02:14.163Z,95857.09
2022-12-02T15:04:42.269Z,95884.81
2022-12-02T15:07:10.164Z,95880.03
2022-12-02T15:09:38.062Z,95871.16
2022-12-02T15:12:06.685Z,95876.81
2022-12-02T15:14:34.586Z,95834.03
2022-12-02T15:17:03.930Z,95897.19
2022-12-02T15:19:31.901Z,95874.78
2022-12-02T15:21:59.761Z,95894.50
2022-12-02T15:24:27.626Z,95883.84
2022-12-02T15:26:56.037Z,95893.25
2022-12-02T15:29:24.376Z,95838.91
2022-12-02T15:31:52.388Z,95879.06
2022-12-02T15:34:21.825Z,95879.44
2022-12-02T15:36:49.704Z,95898.34
2022-12-02T15:39:17.568Z,95900.72
2022-12-02T15:41:45.445Z,95897.81
2022-12-02T15:44:13.369Z,95889.34
2022-12-02T15:46:41.928Z,95903.47
2022-12-02T15:49:09.891Z,95910.06
2022-12-02T15:51:39.181Z,95904.97
2022-12-02T15:54:07.107Z,95889.41
2022-12-02T15:56:35.073Z,95851.56
2022-12-02T15:59:03.651Z,95858.00
2022-12-02T16:01:32.104Z,95827.78
2022-12-02T16:04:00.222Z,95899.69
2022-12-02T16:06:28.101Z,95866.25
2022-12-02T16:08:57.323Z,95907.88
2022-12-02T16:11:25.253Z,95908.03
2022-12-02T16:13:53.595Z,95914.84
2022-12-02T16:16:21.973Z,95913.75
2022-12-02T16:18:50.075Z,95901.31
2022-12-02T16:21:18.862Z,95889.94
2022-12-02T16:23:46.712Z,95916.06
2022-12-02T16:26:15.938Z,95915.53
2022-12-02T16:28:45.901Z,95878.47
